Time;durP1;ratioP1;P1;durP2;ratioP2;P2;SDS_P1;SDS_P2;PMS_P1;PMS_P2;Temp;Humidity;BMP_temperature;BMP_pressure;BME280_temperature;BME280_humidity;BME280_pressure;Samples;Min_cycle;Max_cycle;Signal;HPM_P1;HPM_P2
2021/01/27 00:01:43;;;;;;;4.70;3.57;;;3.80;99.90;;;;;;4959693;28;20213;-84
2021/01/27 00:04:08;;;;;;;5.60;5.17;;;3.90;99.90;;;;;;4960284;28;20228;-86
2021/01/27 00:06:34;;;;;;;8.97;4.20;;;3.90;99.90;;;;;;4944891;28;20220;-84
2021/01/27 00:09:00;;;;;;;8.57;4.30;;;3.90;99.90;;;;;;4930885;28;20586;-85
2021/01/27 00:11:25;;;;;;;8.33;6.53;;;3.80;99.90;;;;;;4944230;28;20223;-83
2021/01/27 00:13:51;;;;;;;8.10;6.30;;;3.90;99.90;;;;;;4977969;28;20249;-85
2021/01/27 00:16:17;;;;;;;8.43;6.90;;;3.90;99.90;;;;;;4945312;28;20746;-84
2021/01/27 00:18:43;;;;;;;10.27;6.57;;;3.90;99.90;;;;;;4977688;28;20288;-85
2021/01/27 00:21:08;;;;;;;2.83;2.57;;;3.90;99.90;;;;;;4961979;28;20209;-86
2021/01/27 00:23:34;;;;;;;5.93;4.27;;;3.90;99.90;;;;;;4973402;28;20216;-85
2021/01/27 00:26:00;;;;;;;9.07;6.00;;;3.90;99.90;;;;;;4928788;28;21028;-85
2021/01/27 00:28:25;;;;;;;7.20;6.10;;;3.90;99.90;;;;;;4960873;28;20220;-85
2021/01/27 00:30:51;;;;;;;8.67;7.00;;;3.90;99.90;;;;;;4944173;28;20289;-85
2021/01/27 00:33:17;;;;;;;4.97;4.67;;;3.90;99.90;;;;;;4959378;28;20208;-84
2021/01/27 00:35:46;;;;;;;13.27;4.87;;;3.80;99.90;;;;;;4962262;28;20197;-84
2021/01/27 00:38:24;;;;;;;10.23;5.50;;;3.90;99.90;;;;;;4961473;28;20220;-85
2021/01/27 00:40:54;;;;;;;6.07;4.83;;;3.90;99.90;;;;;;4962223;28;20227;-85
2021/01/27 00:43:19;;;;;;;6.07;5.40;;;3.90;99.90;;;;;;4944734;28;20223;-85
2021/01/27 00:45:47;;;;;;;5.63;5.20;;;3.90;99.90;;;;;;4945417;28;20228;-85
2021/01/27 00:48:12;;;;;;;7.97;6.00;;;3.90;99.90;;;;;;4977018;28;20219;-82
2021/01/27 00:50:38;;;;;;;7.27;5.33;;;3.90;99.90;;;;;;4978867;28;20682;-84
2021/01/27 00:53:05;;;;;;;12.50;4.70;;;3.80;99.90;;;;;;4927674;28;20226;-86
2021/01/27 00:55:31;;;;;;;6.60;5.03;;;3.80;99.90;;;;;;4976073;28;20260;-83
2021/01/27 00:57:59;;;;;;;5.53;5.03;;;3.80;99.90;;;;;;4961490;28;20294;-84
2021/01/27 01:00:30;;;;;;;5.17;4.77;;;3.80;99.90;;;;;;4960472;28;20219;-87
2021/01/27 01:02:56;;;;;;;9.70;4.77;;;3.80;99.90;;;;;;4962393;28;20173;-85
2021/01/27 01:05:29;;;;;;;7.77;6.40;;;3.80;99.90;;;;;;4976197;28;20596;-84
2021/01/27 01:07:55;;;;;;;7.27;6.57;;;3.80;99.90;;;;;;4960003;28;20720;-84
2021/01/27 01:10:23;;;;;;;7.27;6.63;;;3.70;99.90;;;;;;4960506;28;20690;-83
2021/01/27 01:12:48;;;;;;;6.23;5.50;;;3.70;99.90;;;;;;4960321;28;20759;-86
2021/01/27 01:15:15;;;;;;;4.43;4.00;;;3.70;99.90;;;;;;4961661;28;20693;-85
2021/01/27 01:17:41;;;;;;;5.90;5.43;;;3.70;99.90;;;;;;4929781;28;20204;-83
2021/01/27 01:20:13;;;;;;;3.83;3.03;;;3.70;99.90;;;;;;4960084;28;20224;-86
2021/01/27 01:22:40;;;;;;;5.63;4.70;;;3.60;99.90;;;;;;4960521;28;20225;-85
2021/01/27 01:25:07;;;;;;;5.10;4.60;;;3.60;99.90;;;;;;4960996;28;20216;-85
2021/01/27 01:27:32;;;;;;;4.37;4.07;;;3.60;99.90;;;;;;4959926;28;20224;-85
2021/01/27 01:29:58;;;;;;;12.77;4.40;;;3.50;99.90;;;;;;4961468;28;20236;-83
2021/01/27 01:32:24;;;;;;;8.93;4.33;;;3.50;99.90;;;;;;4943775;28;20225;-84
2021/01/27 01:34:49;;;;;;;4.07;3.33;;;3.50;99.90;;;;;;4960102;28;20294;-83
2021/01/27 01:37:15;;;;;;;3.33;3.03;;;3.40;99.90;;;;;;4959833;28;20232;-83
2021/01/27 01:39:41;;;;;;;4.57;3.83;;;3.40;99.90;;;;;;4944027;28;20259;-84
2021/01/27 01:42:07;;;;;;;4.33;4.00;;;3.40;99.90;;;;;;4961653;28;20204;-83
2021/01/27 01:44:32;;;;;;;3.23;3.00;;;3.30;99.90;;;;;;4961123;28;20307;-84
2021/01/27 01:46:58;;;;;;;8.10;4.13;;;3.30;99.90;;;;;;4959274;28;20223;-85
2021/01/27 01:49:24;;;;;;;4.43;3.20;;;3.30;99.90;;;;;;4926832;28;20663;-85
2021/01/27 01:52:01;;;;;;;4.47;3.23;;;3.30;99.90;;;;;;4960434;28;21106;-86
2021/01/27 01:54:38;;;;;;;4.13;2.10;;;3.30;99.90;;;;;;4962713;28;20208;-85
2021/01/27 01:57:11;;;;;;;6.13;3.87;;;3.30;99.90;;;;;;4974622;28;20235;-83
2021/01/27 01:59:39;;;;;;;5.63;4.80;;;3.20;99.90;;;;;;4945025;29;20236;-84
2021/01/27 02:02:09;;;;;;;6.23;4.83;;;3.20;99.90;;;;;;4945242;29;20217;-86
2021/01/27 02:04:52;;;;;;;4.13;3.83;;;3.20;99.90;;;;;;4944129;28;20228;-84
2021/01/27 02:07:19;;;;;;;9.43;4.43;;;3.20;99.90;;;;;;4944138;28;20765;-83
2021/01/27 02:09:44;;;;;;;3.73;2.27;;;3.20;99.90;;;;;;4945810;28;20241;-84
2021/01/27 02:12:23;;;;;;;3.07;2.87;;;3.20;99.90;;;;;;4930216;29;20655;-84
2021/01/27 02:15:08;;;;;;;3.07;2.60;;;3.20;99.90;;;;;;4945331;28;20344;-85
2021/01/27 02:17:55;;;;;;;9.63;3.93;;;3.20;99.90;;;;;;4945370;28;20245;-85
2021/01/27 02:20:55;;;;;;;3.63;3.13;;;3.20;99.90;;;;;;4943993;28;20225;-84
2021/01/27 02:23:58;;;;;;;3.37;3.17;;;3.20;99.90;;;;;;4945280;29;20774;-85
2021/01/27 02:26:41;;;;;;;3.57;2.63;;;3.20;99.90;;;;;;4946685;28;20595;-83
2021/01/27 02:29:19;;;;;;;3.17;2.87;;;3.20;99.90;;;;;;4944680;28;20225;-84
2021/01/27 02:32:08;;;;;;;7.30;3.93;;;3.20;99.90;;;;;;4944647;28;20228;-85
2021/01/27 02:35:09;;;;;;;2.60;2.40;;;3.20;99.90;;;;;;4942602;28;21048;-86
2021/01/27 02:37:42;;;;;;;2.93;2.67;;;3.20;99.90;;;;;;4943071;28;20803;-84
2021/01/27 02:40:35;;;;;;;3.47;3.20;;;3.20;99.90;;;;;;4945715;28;20343;-84
2021/01/27 02:43:17;;;;;;;2.70;2.50;;;3.20;99.90;;;;;;4944412;28;20248;-84
2021/01/27 02:45:51;;;;;;;2.83;2.60;;;3.20;99.90;;;;;;4959934;28;20694;-84
2021/01/27 02:48:25;;;;;;;3.47;2.00;;;3.20;99.90;;;;;;4943154;28;20193;-83
2021/01/27 02:50:57;;;;;;;7.43;2.10;;;3.20;99.90;;;;;;4944941;29;20205;-84
2021/01/27 02:53:28;;;;;;;7.80;3.00;;;3.20;99.90;;;;;;4945417;28;20217;-84
2021/01/27 02:56:13;;;;;;;3.33;2.37;;;3.20;99.90;;;;;;4944486;28;20275;-84
2021/01/27 02:58:54;;;;;;;1.63;1.50;;;3.20;99.90;;;;;;4965649;28;20262;-83
2021/01/27 03:01:29;;;;;;;1.70;1.60;;;3.20;99.90;;;;;;4981815;28;20301;-84
2021/01/27 03:04:01;;;;;;;2.03;1.93;;;3.20;99.90;;;;;;4964239;28;20254;-84
2021/01/27 03:06:27;;;;;;;2.67;2.33;;;3.20;99.90;;;;;;4964719;28;20885;-84
2021/01/27 03:08:58;;;;;;;3.07;2.27;;;3.20;99.90;;;;;;4968038;28;20557;-83
2021/01/27 03:11:29;;;;;;;2.33;2.10;;;3.20;99.90;;;;;;4965932;28;20270;-87
2021/01/27 03:13:55;;;;;;;1.60;1.50;;;3.20;99.90;;;;;;4966119;28;20212;-83
2021/01/27 03:16:26;;;;;;;4.13;3.07;;;3.10;99.90;;;;;;4965465;28;20223;-83
2021/01/27 03:19:01;;;;;;;2.57;2.40;;;3.10;99.90;;;;;;4981393;28;20215;-84
2021/01/27 03:21:36;;;;;;;2.40;2.20;;;3.10;99.90;;;;;;4982820;28;20202;-85
2021/01/27 03:24:08;;;;;;;3.13;2.90;;;3.00;99.90;;;;;;4984051;28;20210;-83
2021/01/27 03:26:42;;;;;;;1.40;1.07;;;3.00;99.90;;;;;;4964989;28;20226;-85
2021/01/27 03:29:20;;;;;;;2.10;2.00;;;3.00;99.90;;;;;;4965079;28;20708;-86
2021/01/27 03:31:46;;;;;;;5.90;2.07;;;3.00;99.90;;;;;;4980876;28;20212;-83
2021/01/27 03:34:19;;;;;;;2.13;1.50;;;2.90;99.90;;;;;;4961314;28;20654;-84
2021/01/27 03:36:54;;;;;;;2.13;1.97;;;3.00;99.90;;;;;;4980500;28;20216;-85
2021/01/27 03:39:22;;;;;;;2.47;2.07;;;3.00;99.90;;;;;;4982260;28;20184;-85
2021/01/27 03:41:59;;;;;;;4.57;3.13;;;3.00;99.90;;;;;;4966089;28;20296;-84
2021/01/27 03:44:33;;;;;;;4.90;3.00;;;2.90;99.90;;;;;;4965121;28;20207;-85
2021/01/27 03:47:16;;;;;;;2.53;2.33;;;2.90;99.90;;;;;;4981633;28;20220;-86
2021/01/27 03:50:02;;;;;;;3.77;2.77;;;2.90;99.90;;;;;;4965081;28;20262;-85
2021/01/27 03:52:40;;;;;;;7.57;3.23;;;2.90;99.90;;;;;;4964703;28;20220;-85
2021/01/27 03:55:21;;;;;;;5.00;2.70;;;2.90;99.90;;;;;;4962904;28;20270;-84
2021/01/27 03:57:57;;;;;;;3.43;3.13;;;2.90;99.90;;;;;;4979448;28;20236;-87
2021/01/27 04:00:27;;;;;;;5.07;3.40;;;2.90;99.90;;;;;;4981991;28;20206;-85
2021/01/27 04:03:14;;;;;;;2.30;2.17;;;2.90;99.90;;;;;;4965397;28;20203;-84
2021/01/27 04:05:40;;;;;;;3.90;3.33;;;2.90;99.90;;;;;;4964718;28;20291;-84
2021/01/27 04:08:06;;;;;;;5.03;4.00;;;2.80;99.90;;;;;;4964279;28;20220;-85
2021/01/27 04:10:32;;;;;;;4.53;3.23;;;2.90;99.90;;;;;;4942074;28;20705;-88
2021/01/27 04:12:58;;;;;;;5.03;4.27;;;2.80;99.90;;;;;;4964889;28;20230;-86
2021/01/27 04:15:24;;;;;;;4.40;3.73;;;2.90;99.90;;;;;;4965131;28;20192;-84
2021/01/27 04:17:50;;;;;;;5.20;3.00;;;2.80;99.90;;;;;;4982244;28;21228;-85
2021/01/27 04:20:16;;;;;;;4.20;3.57;;;2.90;99.90;;;;;;4947548;28;20234;-86
2021/01/27 04:22:42;;;;;;;4.53;4.13;;;2.80;99.90;;;;;;4964461;28;20700;-85
2021/01/27 04:25:08;;;;;;;4.40;4.00;;;2.80;99.90;;;;;;4948345;28;20293;-83
2021/01/27 04:27:34;;;;;;;3.83;3.27;;;2.80;99.90;;;;;;4963949;28;20228;-84
2021/01/27 04:30:00;;;;;;;4.57;3.77;;;2.80;99.90;;;;;;4948008;28;20223;-85
2021/01/27 04:32:25;;;;;;;2.97;2.77;;;2.80;99.90;;;;;;4963526;28;20234;-84
2021/01/27 04:34:51;;;;;;;4.80;3.73;;;2.80;99.90;;;;;;4961928;28;21232;-85
2021/01/27 04:37:17;;;;;;;5.43;5.00;;;2.80;99.90;;;;;;4964937;28;20248;-87
2021/01/27 04:39:43;;;;;;;6.40;5.30;;;2.80;99.90;;;;;;4948315;28;20335;-85
2021/01/27 04:42:10;;;;;;;4.60;4.07;;;2.90;99.90;;;;;;4950579;28;20196;-85
2021/01/27 04:44:36;;;;;;;3.60;3.17;;;2.90;99.90;;;;;;4964331;28;20250;-85
2021/01/27 04:47:24;;;;;;;3.37;3.17;;;2.90;99.90;;;;;;4964505;28;20309;-84
2021/01/27 04:50:06;;;;;;;5.53;5.00;;;2.90;99.90;;;;;;4981548;28;20889;-85
2021/01/27 04:52:57;;;;;;;4.20;3.17;;;2.90;99.90;;;;;;4964695;28;20215;-85
2021/01/27 04:55:38;;;;;;;4.53;3.63;;;2.90;99.90;;;;;;4964746;28;20278;-86
2021/01/27 04:58:28;;;;;;;6.33;4.67;;;2.70;99.90;;;;;;4964555;28;20243;-87
2021/01/27 05:01:15;;;;;;;10.73;2.80;;;2.70;99.90;;;;;;4980746;28;20330;-88
2021/01/27 05:04:03;;;;;;;3.53;3.23;;;2.60;99.90;;;;;;4981476;28;20234;-89
2021/01/27 05:06:32;;;;;;;2.87;2.67;;;2.60;99.90;;;;;;4964337;28;20180;-89
2021/01/27 05:09:05;;;;;;;4.60;2.80;;;2.50;99.90;;;;;;4982932;28;20247;-87
2021/01/27 05:11:31;;;;;;;3.93;3.10;;;2.50;99.90;;;;;;4963770;28;20234;-86
2021/01/27 05:14:00;;;;;;;4.47;3.53;;;2.40;99.90;;;;;;4948460;28;20271;-86
2021/01/27 05:16:28;;;;;;;4.60;2.87;;;2.40;99.90;;;;;;4964601;28;20223;-86
2021/01/27 05:19:05;;;;;;;4.63;3.23;;;2.40;99.90;;;;;;4964692;28;20681;-86
2021/01/27 05:21:41;;;;;;;3.70;3.23;;;2.40;99.90;;;;;;4981135;28;20592;-87
2021/01/27 05:24:08;;;;;;;4.73;4.33;;;2.50;99.90;;;;;;4982752;28;20199;-86
2021/01/27 05:26:40;;;;;;;4.87;4.13;;;2.40;99.90;;;;;;4979551;28;20218;-87
2021/01/27 05:29:16;;;;;;;3.40;3.20;;;2.40;99.90;;;;;;4979631;28;20220;-87
2021/01/27 05:32:08;;;;;;;4.60;3.40;;;2.40;99.90;;;;;;4963340;28;20628;-85
2021/01/27 05:34:43;;;;;;;5.80;3.00;;;2.30;99.90;;;;;;4961752;28;20211;-85
2021/01/27 05:37:31;;;;;;;4.87;4.43;;;2.30;99.90;;;;;;4963956;28;20219;-86
2021/01/27 05:40:21;;;;;;;3.80;3.43;;;2.30;99.90;;;;;;4958092;28;20227;-90
2021/01/27 05:42:47;;;;;;;4.43;2.90;;;2.20;99.90;;;;;;4959861;28;20219;-88
2021/01/27 05:45:34;;;;;;;3.53;2.07;;;2.10;99.90;;;;;;4962957;28;20970;-88
2021/01/27 05:48:21;;;;;;;3.13;2.93;;;2.10;99.90;;;;;;4981544;28;20195;-89
2021/01/27 05:50:47;;;;;;;3.87;2.90;;;1.90;99.90;;;;;;4980224;28;20239;-88
2021/01/27 05:53:24;;;;;;;7.10;3.97;;;1.80;99.90;;;;;;4944854;28;20235;-89
2021/01/27 05:56:04;;;;;;;3.40;2.13;;;1.80;99.90;;;;;;4961294;28;20231;-87
2021/01/27 05:58:34;;;;;;;3.53;3.33;;;1.70;99.90;;;;;;4976725;28;20232;-89
2021/01/27 06:01:12;;;;;;;4.30;2.53;;;1.70;99.90;;;;;;4961003;28;20259;-86
2021/01/27 06:03:40;;;;;;;2.73;2.53;;;1.60;99.90;;;;;;4980780;28;20258;-87
2021/01/27 06:06:10;;;;;;;3.00;2.73;;;1.70;99.90;;;;;;4977465;28;20192;-87
2021/01/27 06:08:51;;;;;;;3.53;3.23;;;1.70;99.90;;;;;;4962970;28;20278;-88
2021/01/27 06:11:18;;;;;;;2.30;2.20;;;1.70;99.90;;;;;;4963864;28;20280;-86
2021/01/27 06:13:44;;;;;;;3.47;3.23;;;1.70;99.90;;;;;;4962582;28;20224;-87
2021/01/27 06:16:17;;;;;;;3.00;2.73;;;1.70;99.90;;;;;;4963433;28;20228;-87
2021/01/27 06:18:43;;;;;;;3.27;2.97;;;1.70;99.90;;;;;;4962983;28;20224;-87
2021/01/27 06:21:43;;;;;;;4.17;2.27;;;1.70;99.90;;;;;;4981056;28;20223;-88
2021/01/27 06:24:56;;;;;;;2.70;2.50;;;1.70;99.90;;;;;;4956691;28;20303;-87
2021/01/27 06:27:49;;;;;;;2.33;2.23;;;1.70;99.90;;;;;;4893615;28;20548;-88
2021/01/27 06:30:42;;;;;;;2.30;2.17;;;1.60;99.90;;;;;;4979342;28;20706;-89
2021/01/27 06:33:29;;;;;;;1.67;1.57;;;1.60;99.90;;;;;;4961612;28;20219;-91
2021/01/27 06:36:03;;;;;;;2.27;1.87;;;1.70;99.90;;;;;;4979200;28;20721;-88
2021/01/27 06:38:55;;;;;;;1.80;1.63;;;1.60;99.90;;;;;;4962804;28;20683;-89
2021/01/27 06:41:29;;;;;;;2.33;2.13;;;1.60;99.90;;;;;;4982382;28;20220;-88
2021/01/27 06:44:02;;;;;;;2.77;1.93;;;1.50;99.90;;;;;;4983908;28;20266;-89
2021/01/27 06:46:56;;;;;;;2.27;2.13;;;1.50;99.90;;;;;;4965999;28;20216;-88
2021/01/27 06:49:53;;;;;;;2.33;1.87;;;1.40;99.90;;;;;;4984796;28;20216;-88
2021/01/27 06:53:02;;;;;;;1.50;1.43;;;1.40;99.90;;;;;;4984644;28;20212;-88
2021/01/27 06:55:49;;;;;;;5.50;3.03;;;1.30;99.90;;;;;;4967037;28;20321;-90
2021/01/27 06:58:46;;;;;;;1.33;1.30;;;1.30;99.90;;;;;;4966921;28;20255;-88
2021/01/27 07:01:50;;;;;;;1.70;1.60;;;1.30;99.90;;;;;;4966132;28;20222;-87
2021/01/27 07:04:49;;;;;;;4.73;2.73;;;1.30;99.90;;;;;;4982629;28;20215;-89
2021/01/27 07:07:30;;;;;;;2.57;2.40;;;1.30;99.90;;;;;;4983413;28;20223;-88
2021/01/27 07:10:23;;;;;;;1.33;1.33;;;1.20;99.90;;;;;;4966048;28;20239;-90
2021/01/27 07:13:03;;;;;;;2.13;1.30;;;1.30;99.90;;;;;;4981652;28;20343;-89
2021/01/27 07:16:42;;;;;;;1.53;1.43;;;1.20;99.90;;;;;;4982431;28;20181;-90
2021/01/27 07:19:22;;;;;;;1.80;1.70;;;1.20;99.90;;;;;;4860436;29;20227;-90
2021/01/27 07:22:33;;;;;;;0.93;0.93;;;1.20;99.90;;;;;;4885951;29;20739;-93
2021/01/27 07:25:11;;;;;;;1.43;1.33;;;1.20;99.90;;;;;;4984125;28;20243;-91
2021/01/27 07:27:55;;;;;;;1.40;1.33;;;1.20;99.90;;;;;;4982630;28;20231;-94
2021/01/27 07:30:26;;;;;;;1.10;1.10;;;1.20;99.90;;;;;;4966418;28;20227;-91
2021/01/27 07:33:00;;;;;;;0.93;0.90;;;1.20;99.90;;;;;;4983035;28;20670;-93
2021/01/27 07:35:40;;;;;;;1.87;1.50;;;1.10;99.90;;;;;;4966837;28;20228;-93
2021/01/27 07:38:18;;;;;;;1.13;1.07;;;1.20;99.90;;;;;;4966818;28;20203;-92
2021/01/27 07:40:53;;;;;;;3.47;1.97;;;1.20;99.90;;;;;;4966540;28;20227;-91
2021/01/27 07:43:31;;;;;;;2.33;2.20;;;1.20;99.90;;;;;;4966015;28;20219;-91
2021/01/27 07:45:59;;;;;;;1.67;1.57;;;1.20;99.90;;;;;;4982841;28;20227;-92
2021/01/27 07:48:39;;;;;;;2.10;1.90;;;1.20;99.90;;;;;;4983029;28;20204;-92
2021/01/27 07:51:12;;;;;;;2.33;2.23;;;1.20;99.90;;;;;;4967922;28;20219;-89
2021/01/27 07:53:42;;;;;;;2.17;1.97;;;1.30;99.90;;;;;;4981560;28;20265;-90
2021/01/27 07:56:53;;;;;;;2.47;2.10;;;1.30;99.90;;;;;;4982938;28;20230;-92
2021/01/27 07:59:27;;;;;;;2.50;2.33;;;1.30;99.90;;;;;;4959022;28;20237;-94
2021/01/27 08:02:16;;;;;;;3.80;2.73;;;1.40;99.90;;;;;;4936960;29;20228;-92
2021/01/27 08:04:46;;;;;;;5.17;3.70;;;1.30;99.90;;;;;;4926692;28;20225;-91
2021/01/27 08:07:24;;;;;;;1.43;1.33;;;1.40;99.90;;;;;;4942351;28;20237;-89
2021/01/27 08:09:51;;;;;;;0.40;0.40;;;1.40;99.90;;;;;;4942268;28;20236;-88
2021/01/27 08:12:41;;;;;;;1.83;1.70;;;1.40;99.90;;;;;;4942355;28;20200;-87
2021/01/27 08:15:52;;;;;;;1.50;1.37;;;1.40;99.90;;;;;;4950590;28;20222;-84
2021/01/27 08:18:19;;;;;;;2.30;2.13;;;1.40;99.90;;;;;;4949015;28;20236;-86
2021/01/27 08:20:46;;;;;;;1.57;1.47;;;1.40;99.90;;;;;;4922090;29;20181;-87
2021/01/27 08:23:21;;;;;;;4.23;1.27;;;1.40;99.90;;;;;;4943143;28;20270;-93
2021/01/27 08:25:56;;;;;;;0.60;0.60;;;1.40;99.90;;;;;;4944590;28;20229;-90
2021/01/27 08:28:37;;;;;;;3.10;1.50;;;1.40;99.90;;;;;;4936808;28;20232;-91
2021/01/27 08:31:09;;;;;;;0.50;0.50;;;1.50;99.90;;;;;;4942453;28;20237;-90
2021/01/27 08:33:53;;;;;;;2.33;2.20;;;1.50;99.90;;;;;;4930639;28;20221;-90
2021/01/27 08:36:28;;;;;;;1.20;1.10;;;1.50;99.90;;;;;;4932791;28;20570;-90
2021/01/27 08:39:07;;;;;;;4.30;2.13;;;1.50;99.90;;;;;;4936456;28;20219;-91
2021/01/27 08:41:38;;;;;;;1.03;0.97;;;1.50;99.90;;;;;;4958581;28;20299;-90
2021/01/27 08:44:05;;;;;;;1.10;1.10;;;1.50;99.90;;;;;;4941559;28;20252;-90
2021/01/27 08:46:44;;;;;;;1.10;1.00;;;1.50;99.90;;;;;;4940633;28;20296;-89
2021/01/27 08:49:10;;;;;;;2.53;2.37;;;1.60;99.90;;;;;;4939399;28;20610;-90
2021/01/27 08:51:42;;;;;;;1.30;1.13;;;1.70;99.90;;;;;;4943499;28;20742;-90
2021/01/27 08:54:35;;;;;;;2.97;1.57;;;1.70;99.90;;;;;;4944052;28;20189;-90
2021/01/27 08:57:23;;;;;;;0.37;0.37;;;1.70;99.90;;;;;;4941777;28;20270;-91
2021/01/27 09:00:12;;;;;;;1.77;1.57;;;1.70;99.90;;;;;;4980003;28;20223;-92
2021/01/27 09:02:47;;;;;;;2.37;1.20;;;1.80;99.90;;;;;;4980824;28;20665;-92
2021/01/27 09:05:22;;;;;;;1.03;1.00;;;1.80;99.90;;;;;;4962440;28;20218;-89
2021/01/27 09:08:11;;;;;;;1.87;1.77;;;1.90;99.90;;;;;;4963941;28;20226;-89
2021/01/27 09:10:40;;;;;;;2.27;1.33;;;1.90;99.90;;;;;;4981703;28;20286;-90
2021/01/27 09:13:38;;;;;;;1.17;1.17;;;2.00;99.90;;;;;;4963494;28;20223;-89
2021/01/27 09:16:15;;;;;;;1.20;0.93;;;2.00;99.90;;;;;;4964192;28;20555;-89
2021/01/27 09:18:43;;;;;;;1.27;1.07;;;2.00;99.90;;;;;;4963933;28;20223;-92
2021/01/27 09:21:18;;;;;;;1.13;1.13;;;2.10;99.90;;;;;;4965320;28;20242;-90
2021/01/27 09:23:46;;;;;;;1.97;1.50;;;2.20;99.90;;;;;;4963551;28;20216;-91
2021/01/27 09:26:30;;;;;;;3.07;2.37;;;2.20;99.90;;;;;;4963930;28;20255;-90
2021/01/27 09:29:13;;;;;;;6.20;1.50;;;2.20;99.90;;;;;;4964061;28;20218;-89
2021/01/27 09:31:39;;;;;;;1.43;1.33;;;2.30;99.90;;;;;;4963313;28;20247;-89
2021/01/27 09:34:35;;;;;;;2.57;1.80;;;2.30;99.90;;;;;;4960153;28;20306;-90
2021/01/27 09:37:02;;;;;;;2.83;1.93;;;2.40;99.90;;;;;;4960307;28;20258;-88
2021/01/27 09:39:31;;;;;;;1.83;1.30;;;2.50;99.90;;;;;;4963516;28;20199;-88
2021/01/27 09:42:01;;;;;;;2.33;2.20;;;2.50;99.90;;;;;;4964364;28;20192;-88
2021/01/27 09:44:36;;;;;;;1.40;1.30;;;2.50;99.90;;;;;;4962451;28;21148;-88
2021/01/27 09:47:10;;;;;;;3.07;2.87;;;2.60;99.90;;;;;;4980423;28;20215;-87
2021/01/27 09:49:40;;;;;;;2.63;1.70;;;2.60;99.90;;;;;;4962791;28;20262;-89
2021/01/27 09:52:11;;;;;;;2.17;1.50;;;2.60;99.90;;;;;;4980143;28;20220;-88
2021/01/27 09:55:07;;;;;;;7.63;4.07;;;2.70;99.90;;;;;;4979575;28;20278;-88
2021/01/27 09:57:36;;;;;;;1.43;1.33;;;2.70;99.90;;;;;;4977508;28;20306;-87
2021/01/27 10:00:28;;;;;;;2.17;1.67;;;2.80;99.90;;;;;;4964667;28;20192;-88
2021/01/27 10:02:54;;;;;;;2.63;2.17;;;2.80;99.90;;;;;;4952385;28;20255;-86
2021/01/27 10:05:41;;;;;;;4.03;3.17;;;2.80;99.90;;;;;;4946304;28;20219;-88
2021/01/27 10:08:21;;;;;;;5.03;4.00;;;2.90;99.90;;;;;;4978802;28;20219;-88
2021/01/27 10:10:59;;;;;;;3.17;2.63;;;2.90;99.90;;;;;;4962209;28;20267;-87
2021/01/27 10:13:31;;;;;;;4.00;2.53;;;3.00;99.90;;;;;;4961202;28;20241;-89
2021/01/27 10:16:13;;;;;;;4.27;2.63;;;3.00;99.90;;;;;;4980203;28;20226;-88
2021/01/27 10:18:42;;;;;;;4.00;2.30;;;3.10;99.90;;;;;;4965518;28;20215;-88
2021/01/27 10:21:13;;;;;;;3.87;3.10;;;3.20;99.90;;;;;;4951059;28;20200;-89
2021/01/27 10:23:48;;;;;;;5.63;4.07;;;3.20;99.90;;;;;;4963851;28;20356;-88
2021/01/27 10:26:35;;;;;;;3.53;2.47;;;3.30;99.90;;;;;;4966594;28;20297;-90
2021/01/27 10:29:20;;;;;;;4.97;4.17;;;3.40;99.90;;;;;;4983022;28;20211;-88
2021/01/27 10:31:55;;;;;;;6.20;5.60;;;3.50;99.90;;;;;;4983438;28;20322;-88
2021/01/27 10:34:48;;;;;;;4.60;2.60;;;3.50;99.90;;;;;;4963720;28;20227;-87
2021/01/27 10:37:35;;;;;;;3.50;3.27;;;3.60;99.90;;;;;;4983603;28;20220;-88
2021/01/27 10:40:24;;;;;;;3.47;2.93;;;3.60;99.90;;;;;;4981860;28;20228;-85
2021/01/27 10:43:23;;;;;;;3.63;1.87;;;3.70;99.90;;;;;;4982122;28;20307;-87
2021/01/27 10:45:49;;;;;;;6.53;3.53;;;3.60;99.90;;;;;;4982362;28;20208;-88
2021/01/27 10:48:26;;;;;;;2.83;2.67;;;3.70;99.90;;;;;;4965346;28;20188;-87
2021/01/27 10:50:55;;;;;;;6.73;3.50;;;3.80;99.90;;;;;;4984003;28;20281;-87
2021/01/27 10:53:21;;;;;;;5.00;3.23;;;3.80;99.90;;;;;;4981650;28;20250;-90
2021/01/27 10:55:55;;;;;;;3.47;1.90;;;3.90;99.90;;;;;;4964486;28;20303;-86
2021/01/27 10:58:21;;;;;;;2.73;2.53;;;3.90;99.90;;;;;;4961752;28;20240;-87
2021/01/27 11:00:48;;;;;;;3.57;2.47;;;4.00;99.90;;;;;;4962368;28;20248;-90
2021/01/27 11:03:14;;;;;;;4.37;3.13;;;4.00;99.90;;;;;;4955464;28;20342;-87
2021/01/27 11:05:40;;;;;;;3.70;2.93;;;4.00;99.90;;;;;;4946345;28;20832;-88
2021/01/27 11:08:10;;;;;;;3.07;2.30;;;4.00;99.90;;;;;;4961182;28;20230;-87
2021/01/27 11:10:36;;;;;;;5.07;3.67;;;4.10;99.90;;;;;;4963121;28;20736;-83
2021/01/27 11:13:02;;;;;;;4.73;3.13;;;4.10;99.90;;;;;;4945819;28;20336;-84
2021/01/27 11:15:28;;;;;;;4.20;2.07;;;4.20;99.90;;;;;;4963052;28;20307;-86
2021/01/27 11:17:53;;;;;;;4.23;3.83;;;4.20;99.90;;;;;;4963733;28;20203;-87
2021/01/27 11:20:22;;;;;;;5.67;3.57;;;4.30;99.90;;;;;;4962441;28;20263;-87
2021/01/27 11:22:49;;;;;;;4.17;3.57;;;4.30;99.90;;;;;;4962670;28;20217;-85
2021/01/27 11:25:17;;;;;;;5.07;3.70;;;4.30;99.90;;;;;;4960348;28;20378;-85
2021/01/27 11:27:43;;;;;;;5.17;2.97;;;4.30;99.90;;;;;;4930176;28;20224;-85
2021/01/27 11:30:10;;;;;;;6.20;4.03;;;4.40;99.90;;;;;;4964512;28;20236;-86
2021/01/27 11:32:36;;;;;;;7.57;5.00;;;4.50;99.90;;;;;;4961056;28;20213;-87
2021/01/27 11:35:03;;;;;;;6.57;4.17;;;4.50;99.90;;;;;;4962063;28;20220;-85
2021/01/27 11:37:29;;;;;;;5.10;4.70;;;4.60;99.90;;;;;;4960849;28;20227;-86
2021/01/27 11:39:55;;;;;;;5.00;3.73;;;4.60;99.90;;;;;;4944492;28;20232;-84
2021/01/27 11:42:20;;;;;;;3.37;2.80;;;4.70;99.90;;;;;;4961770;28;21129;-85
2021/01/27 11:44:46;;;;;;;5.47;2.97;;;4.80;99.90;;;;;;4961785;28;20204;-86
2021/01/27 11:47:12;;;;;;;3.40;2.53;;;4.90;99.90;;;;;;4929085;28;20272;-87
2021/01/27 11:49:39;;;;;;;7.93;3.10;;;5.10;99.90;;;;;;4962423;28;20701;-87
2021/01/27 11:52:06;;;;;;;6.27;4.03;;;5.10;99.90;;;;;;4978768;28;20311;-88
2021/01/27 11:54:32;;;;;;;5.07;4.23;;;5.20;99.90;;;;;;4944398;28;20306;-89
2021/01/27 11:56:58;;;;;;;10.13;3.33;;;5.20;99.90;;;;;;4947763;28;20749;-89
2021/01/27 11:59:24;;;;;;;4.37;3.13;;;5.30;99.90;;;;;;4930689;28;20244;-88
2021/01/27 12:01:50;;;;;;;5.30;3.03;;;5.40;99.90;;;;;;4961872;28;20622;-87
2021/01/27 12:04:16;;;;;;;2.83;2.63;;;5.50;99.90;;;;;;4945540;28;20259;-88
2021/01/27 12:06:41;;;;;;;2.57;2.40;;;5.50;99.90;;;;;;4978209;28;20242;-87
2021/01/27 12:09:07;;;;;;;1.83;1.50;;;5.60;99.90;;;;;;4946773;28;20674;-88
2021/01/27 12:11:33;;;;;;;2.57;2.23;;;5.70;99.90;;;;;;4946101;28;20316;-87
2021/01/27 12:13:58;;;;;;;2.60;1.40;;;5.70;99.90;;;;;;4962356;28;20236;-90
2021/01/27 12:16:24;;;;;;;2.97;2.47;;;5.80;99.90;;;;;;4977385;28;20221;-87
2021/01/27 12:18:50;;;;;;;4.60;2.10;;;5.90;99.90;;;;;;4944858;28;20316;-89
2021/01/27 12:21:15;;;;;;;5.37;3.87;;;5.90;99.90;;;;;;4961714;28;20227;-87
2021/01/27 12:23:41;;;;;;;1.93;1.33;;;6.00;99.90;;;;;;4947596;28;20654;-86
2021/01/27 12:26:07;;;;;;;1.80;1.50;;;6.00;99.90;;;;;;4962403;28;20283;-88
2021/01/27 12:28:33;;;;;;;2.83;2.10;;;6.00;99.90;;;;;;4945039;28;20212;-89
2021/01/27 12:30:59;;;;;;;3.20;1.93;;;6.00;99.90;;;;;;4943945;28;20698;-88
2021/01/27 12:33:25;;;;;;;2.30;1.77;;;6.00;99.90;;;;;;4939893;28;20197;-85
2021/01/27 12:35:52;;;;;;;4.77;2.50;;;5.90;99.90;;;;;;4943197;28;20247;-84
2021/01/27 12:38:18;;;;;;;1.37;1.27;;;5.90;99.90;;;;;;4956792;28;20228;-87
2021/01/27 12:40:44;;;;;;;2.80;2.27;;;5.80;99.90;;;;;;4941608;28;20227;-87
2021/01/27 12:43:11;;;;;;;2.73;2.53;;;5.80;99.90;;;;;;4942296;28;20216;-86
2021/01/27 12:45:36;;;;;;;4.27;3.03;;;5.80;99.90;;;;;;4959460;28;20730;-86
2021/01/27 12:48:03;;;;;;;1.63;1.53;;;5.80;99.90;;;;;;4946510;28;20205;-89
2021/01/27 12:50:28;;;;;;;6.30;2.87;;;5.80;99.90;;;;;;4961416;28;20240;-87
2021/01/27 12:52:54;;;;;;;4.40;1.60;;;5.80;99.90;;;;;;4961550;28;20230;-86
2021/01/27 12:55:21;;;;;;;2.27;2.17;;;5.80;99.90;;;;;;4959413;28;21155;-87
2021/01/27 12:57:48;;;;;;;1.43;1.33;;;5.80;99.90;;;;;;4960195;28;20315;-88
2021/01/27 13:00:20;;;;;;;2.60;2.27;;;5.80;99.90;;;;;;4960299;28;20208;-88
2021/01/27 13:02:46;;;;;;;3.27;2.33;;;5.70;99.90;;;;;;4962484;28;20221;-88
2021/01/27 13:05:14;;;;;;;2.47;2.27;;;5.70;99.90;;;;;;4959757;28;20216;-89
2021/01/27 13:07:40;;;;;;;2.10;1.70;;;5.70;99.90;;;;;;4959916;28;21047;-88
2021/01/27 13:10:08;;;;;;;1.77;1.47;;;5.70;99.90;;;;;;4944351;28;20220;-88
2021/01/27 13:12:35;;;;;;;2.73;1.67;;;5.80;99.90;;;;;;4945388;28;20224;-88
2021/01/27 13:15:04;;;;;;;2.20;1.93;;;5.80;99.90;;;;;;4960480;28;20197;-89
2021/01/27 13:17:29;;;;;;;1.80;1.70;;;5.80;99.90;;;;;;4959024;28;20216;-88
2021/01/27 13:19:55;;;;;;;2.17;1.90;;;5.90;99.90;;;;;;4960797;28;20796;-87
2021/01/27 13:22:21;;;;;;;3.13;2.37;;;5.90;99.90;;;;;;4943947;28;21196;-88
2021/01/27 13:24:46;;;;;;;2.57;1.50;;;5.90;99.90;;;;;;4959406;28;20220;-88
2021/01/27 13:27:12;;;;;;;5.77;3.33;;;5.90;99.90;;;;;;4944512;28;20710;-84
2021/01/27 13:29:38;;;;;;;0.93;0.93;;;5.90;99.90;;;;;;4959752;28;20200;-88
2021/01/27 13:32:04;;;;;;;1.33;1.23;;;6.00;99.90;;;;;;4959962;28;20228;-86
2021/01/27 13:34:30;;;;;;;3.90;2.03;;;6.00;99.90;;;;;;4952897;28;20236;-87